Time;durP1;ratioP1;P1;durP2;ratioP2;P2;SDS_P1;SDS_P2;PMS_P1;PMS_P2;Temp;Humidity;BMP_temperature;BMP_pressure;BME280_temperature;BME280_humidity;BME280_pressure;Samples;Min_cycle;Max_cycle;Signal;HPM_P1;HPM_P2
2022/05/21 00:01:51;;;;;;;3.83;2.10;;;;;;;24.09;46.32;100276.47;4977569;28;20077;-87
2022/05/21 00:04:18;;;;;;;3.17;1.98;;;;;;;24.07;45.80;100276.69;4994183;28;20387;-82
2022/05/21 00:06:45;;;;;;;2.92;2.00;;;;;;;24.11;45.94;100279.81;4979597;28;20153;-82
2022/05/21 00:09:12;;;;;;;2.20;1.88;;;;;;;24.11;45.09;100287.94;4982789;28;20073;-82
2022/05/21 00:11:39;;;;;;;1.88;1.77;;;;;;;23.93;44.39;100288.63;4963302;28;20051;-82
2022/05/21 00:14:06;;;;;;;2.45;1.75;;;;;;;23.92;44.33;100301.34;4968006;28;20050;-82
2022/05/21 00:16:33;;;;;;;3.50;1.80;;;;;;;23.93;44.72;100307.59;4978627;28;20414;-82
2022/05/21 00:19:00;;;;;;;2.47;1.85;;;;;;;23.93;43.73;100308.44;4968684;28;20064;-82
2022/05/21 00:26:16;;;;;;;2.58;1.67;;;;;;;23.74;43.18;100325.59;4952569;28;20108;-86
2022/05/21 00:28:46;;;;;;;3.58;2.50;;;;;;;23.50;42.70;100327.00;4976971;28;20109;-88
2022/05/21 00:31:15;;;;;;;3.60;2.70;;;;;;;23.40;43.35;100335.53;4988448;28;20047;-87
2022/05/21 00:33:44;;;;;;;3.00;2.45;;;;;;;23.35;43.20;100338.88;4969882;28;20054;-86
2022/05/21 00:36:11;;;;;;;4.53;2.50;;;;;;;23.34;43.57;100341.81;4971497;28;20078;-88
2022/05/21 00:38:41;;;;;;;4.97;2.00;;;;;;;23.27;43.23;100343.66;4978474;28;20458;-87
2022/05/21 00:41:10;;;;;;;3.25;2.22;;;;;;;23.23;43.46;100350.53;4976360;28;20078;-87
2022/05/21 00:43:42;;;;;;;2.45;2.17;;;;;;;23.12;43.53;100347.38;4957696;28;20390;-87
2022/05/21 00:46:30;;;;;;;4.05;1.90;;;;;;;23.20;43.76;100354.47;4974104;28;20046;-87
2022/05/21 00:49:08;;;;;;;4.50;2.20;;;;;;;23.26;43.79;100363.69;4948848;28;20043;-87
2022/05/21 00:51:51;;;;;;;3.20;2.22;;;;;;;23.25;43.17;100359.28;4954093;28;20137;-87
2022/05/21 00:54:21;;;;;;;3.47;2.67;;;;;;;23.22;43.32;100362.41;4967393;28;20100;-87
2022/05/21 00:56:52;;;;;;;3.55;2.35;;;;;;;23.23;43.59;100366.78;4998853;28;20490;-87
2022/05/21 01:02:06;;;;;;;4.72;3.08;;;;;;;23.01;43.13;100361.53;4940341;28;20497;-82
2022/05/21 01:04:34;;;;;;;7.72;3.28;;;;;;;23.04;43.23;100357.59;4962728;28;20146;-87
2022/05/21 01:07:02;;;;;;;3.78;2.90;;;;;;;23.03;43.14;100370.31;4940927;28;20066;-87
2022/05/21 01:09:29;;;;;;;5.57;2.70;;;;;;;23.04;43.53;100371.97;4930826;28;20093;-87
2022/05/21 01:11:56;;;;;;;5.38;2.88;;;;;;;22.89;43.28;100373.97;4956154;28;20065;-86
2022/05/21 01:14:23;;;;;;;5.00;3.42;;;;;;;22.76;43.64;100378.28;4962692;28;20047;-87
2022/05/21 01:16:50;;;;;;;3.28;2.40;;;;;;;22.82;44.04;100378.50;4976010;28;20151;-81
2022/05/21 01:19:18;;;;;;;3.15;2.38;;;;;;;22.85;44.32;100361.88;4968652;28;20047;-81
2022/05/21 01:21:47;;;;;;;2.63;2.22;;;;;;;22.89;44.60;100371.25;4969366;28;20074;-80
2022/05/21 01:24:16;;;;;;;3.65;2.13;;;;;;;22.83;44.40;100380.22;4977558;28;20186;-81
2022/05/21 01:26:43;;;;;;;4.20;2.42;;;;;;;22.82;44.63;100378.50;4981395;28;20073;-82
2022/05/21 01:29:17;;;;;;;2.97;2.50;;;;;;;22.80;44.40;100375.19;4984670;28;20113;-82
2022/05/21 01:31:51;;;;;;;3.72;2.60;;;;;;;22.78;44.55;100380.81;4964829;28;20503;-82
2022/05/21 01:34:18;;;;;;;5.82;2.70;;;;;;;22.80;44.80;100378.75;4930301;28;20043;-82
2022/05/21 01:36:46;;;;;;;3.40;2.80;;;;;;;22.78;44.70;100367.28;4980704;28;20076;-82
2022/05/21 01:39:13;;;;;;;4.03;3.20;;;;;;;22.79;44.55;100377.06;4969557;28;20498;-82
2022/05/21 01:41:44;;;;;;;5.25;2.85;;;;;;;22.79;44.38;100376.22;4968350;28;20047;-82
2022/05/21 01:47:02;;;;;;;4.05;2.72;;;;;;;22.72;44.68;100382.47;4983370;28;20057;-82
2022/05/21 01:49:29;;;;;;;2.63;2.42;;;;;;;22.73;44.79;100389.53;4971351;28;20050;-82
2022/05/21 01:51:56;;;;;;;4.40;2.47;;;;;;;22.66;44.75;100387.84;4975489;28;20042;-82
2022/05/21 01:54:22;;;;;;;3.85;2.65;;;;;;;22.64;44.79;100390.72;4969578;28;20062;-82
2022/05/21 01:56:49;;;;;;;5.15;3.50;;;;;;;22.63;44.33;100389.06;4954621;28;20409;-81
2022/05/21 01:59:16;;;;;;;3.90;2.97;;;;;;;22.60;44.53;100391.34;4977704;28;20052;-81
2022/05/21 02:01:43;;;;;;;5.13;2.88;;;;;;;22.61;44.42;100399.25;4953415;28;20058;-82
2022/05/21 02:04:09;;;;;;;4.07;2.60;;;;;;;22.53;44.28;100397.56;4983514;28;20076;-82
2022/05/21 02:06:36;;;;;;;3.22;2.60;;;;;;;22.53;44.48;100410.25;4963025;28;20054;-83
2022/05/21 02:09:03;;;;;;;3.70;2.50;;;;;;;22.51;45.00;100404.19;4956944;28;20514;-82
2022/05/21 02:11:30;;;;;;;2.80;2.40;;;;;;;22.47;45.20;100411.06;4989802;28;20046;-82
2022/05/21 02:13:56;;;;;;;4.55;2.60;;;;;;;22.47;45.03;100409.19;4960974;28;20046;-82
2022/05/21 02:16:23;;;;;;;3.88;2.25;;;;;;;22.46;44.14;100423.72;4984816;28;20049;-84
2022/05/21 02:18:50;;;;;;;3.85;2.70;;;;;;;22.43;43.95;100431.44;4982077;28;20046;-83
2022/05/21 02:21:18;;;;;;;3.08;2.30;;;;;;;22.41;44.11;100431.63;4959629;28;20382;-83
2022/05/21 02:23:45;;;;;;;3.83;2.67;;;;;;;22.29;43.12;100442.16;4956411;28;20143;-83
2022/05/21 02:26:17;;;;;;;2.40;2.20;;;;;;;21.95;43.32;100429.38;4976069;28;20054;-83
2022/05/21 02:28:43;;;;;;;3.03;2.37;;;;;;;21.81;43.85;100436.56;4979367;28;20602;-87
2022/05/21 02:31:10;;;;;;;3.65;1.90;;;;;;;21.86;44.25;100438.69;4978975;28;20473;-82
2022/05/21 02:33:41;;;;;;;2.92;2.15;;;;;;;21.87;44.49;100438.47;4955235;28;20406;-82
2022/05/21 02:36:08;;;;;;;2.83;1.80;;;;;;;21.93;44.16;100436.88;4975062;28;20059;-82
2022/05/21 02:41:20;;;;;;;3.38;1.85;;;;;;;21.93;44.77;100442.28;4978934;28;20062;-88
2022/05/21 02:43:47;;;;;;;2.88;2.05;;;;;;;21.93;44.58;100446.84;4978927;28;20050;-81
2022/05/21 02:46:15;;;;;;;2.33;1.90;;;;;;;21.91;44.90;100446.22;4966546;28;20046;-82
2022/05/21 02:48:44;;;;;;;4.78;2.05;;;;;;;21.88;44.61;100452.84;4964898;28;20049;-86
2022/05/21 02:51:11;;;;;;;3.28;1.65;;;;;;;21.87;44.76;100460.09;4979751;28;20058;-87
2022/05/21 02:53:38;;;;;;;2.80;1.52;;;;;;;21.85;44.73;100470.31;4963609;28;20506;-82
2022/05/21 02:56:06;;;;;;;2.63;1.80;;;;;;;21.81;44.91;100471.69;4968665;28;20046;-82
2022/05/21 02:58:33;;;;;;;3.00;1.85;;;;;;;21.79;44.77;100470.22;4947661;28;20055;-88
2022/05/21 03:01:00;;;;;;;2.17;1.90;;;;;;;21.78;44.92;100468.53;4978568;28;20061;-83
2022/05/21 03:03:27;;;;;;;3.63;1.75;;;;;;;21.74;44.91;100476.22;4966017;28;20138;-82
2022/05/21 03:05:54;;;;;;;1.75;1.50;;;;;;;21.73;45.21;100476.38;4963979;28;20060;-82
2022/05/21 03:11:06;;;;;;;1.65;1.55;;;;;;;21.68;45.42;100480.53;4934860;28;20046;-83
2022/05/21 03:13:34;;;;;;;1.83;1.63;;;;;;;21.68;45.31;100487.81;4988942;28;20487;-82
2022/05/21 03:16:01;;;;;;;2.47;1.83;;;;;;;21.69;44.93;100486.75;4950573;28;20080;-82
2022/05/21 03:18:28;;;;;;;1.75;1.63;;;;;;;21.68;45.01;100487.81;4981865;28;20401;-83
2022/05/21 03:20:54;;;;;;;3.08;1.50;;;;;;;21.64;45.22;100487.31;4964265;28;20056;-88
2022/05/21 03:23:22;;;;;;;1.40;1.30;;;;;;;21.58;45.11;100492.69;4985116;28;20450;-84
2022/05/21 03:25:48;;;;;;;1.90;1.70;;;;;;;21.51;45.21;100494.47;4957462;28;20038;-84
2022/05/21 03:28:17;;;;;;;2.85;1.90;;;;;;;21.49;45.42;100494.66;4954601;28;20039;-84
2022/05/21 03:30:44;;;;;;;2.70;1.85;;;;;;;21.44;45.47;100499.78;4963034;28;20058;-84
2022/05/21 03:33:11;;;;;;;2.00;1.80;;;;;;;21.41;45.58;100490.19;4969599;28;20407;-84
2022/05/21 03:35:41;;;;;;;3.30;2.22;;;;;;;21.38;45.77;100497.84;4980307;28;20046;-84
2022/05/21 03:38:11;;;;;;;2.10;1.52;;;;;;;21.34;45.47;100496.53;4962958;28;20043;-88
2022/05/21 03:40:40;;;;;;;4.00;2.03;;;;;;;21.34;45.51;100499.22;4955943;28;20046;-84
2022/05/21 03:43:09;;;;;;;3.70;2.13;;;;;;;21.32;45.42;100487.75;4972251;28;20390;-84
2022/05/21 03:45:36;;;;;;;2.58;1.90;;;;;;;21.31;45.51;100497.75;4983151;28;20057;-83
2022/05/21 03:48:05;;;;;;;2.13;1.77;;;;;;;21.32;45.42;100494.03;4965207;28;20168;-89
2022/05/21 03:50:33;;;;;;;3.30;1.95;;;;;;;21.33;45.52;100495.69;4976316;28;20054;-83
2022/05/21 03:53:00;;;;;;;2.30;2.10;;;;;;;21.37;45.11;100499.69;4971284;28;20098;-88
2022/05/21 03:55:27;;;;;;;2.10;1.90;;;;;;;21.37;45.36;100497.00;4957620;28;20081;-87
2022/05/21 03:57:54;;;;;;;3.95;2.45;;;;;;;21.33;44.96;100498.41;4964170;28;20050;-85
2022/05/21 04:00:22;;;;;;;2.08;1.88;;;;;;;21.32;45.39;100514.78;4955007;28;20673;-83
2022/05/21 04:02:48;;;;;;;3.15;1.80;;;;;;;21.32;45.77;100501.28;4945536;28;20113;-83
2022/05/21 04:05:16;;;;;;;2.08;1.88;;;;;;;21.35;45.93;100509.03;4961897;28;20065;-83
2022/05/21 04:07:43;;;;;;;4.13;1.95;;;;;;;21.43;45.80;100517.03;4983103;28;20050;-83
2022/05/21 04:10:12;;;;;;;2.50;1.90;;;;;;;21.60;45.64;100509.53;4947060;28;20046;-84
2022/05/21 04:12:38;;;;;;;2.10;1.92;;;;;;;21.74;45.69;100510.50;4982606;28;20078;-84
2022/05/21 04:15:06;;;;;;;2.13;1.92;;;;;;;21.93;45.69;100522.53;4927701;28;20423;-83
2022/05/21 04:17:33;;;;;;;3.47;2.38;;;;;;;22.09;45.20;100519.59;4981118;28;20046;-83
2022/05/21 04:20:00;;;;;;;2.53;2.00;;;;;;;22.16;44.98;100516.94;4967273;28;20046;-83
2022/05/21 04:22:27;;;;;;;2.53;2.33;;;;;;;22.08;44.77;100521.47;4966351;28;20046;-83
2022/05/21 04:24:54;;;;;;;7.18;2.60;;;;;;;22.02;44.83;100524.09;4970871;28;20046;-83
2022/05/21 04:27:21;;;;;;;4.50;2.35;;;;;;;21.91;45.08;100522.75;4962056;28;20054;-84
2022/05/21 04:29:48;;;;;;;2.97;2.33;;;;;;;21.79;45.04;100527.00;4985572;28;20419;-84
2022/05/21 04:36:21;;;;;;;4.95;2.70;;;;;;;21.58;45.34;100530.53;4934297;28;20093;-83
2022/05/21 04:38:50;;;;;;;4.30;2.50;;;;;;;21.54;45.68;100534.63;4953803;28;20139;-83
2022/05/21 04:41:19;;;;;;;3.67;2.40;;;;;;;21.59;46.00;100534.88;4950503;28;20375;-83
2022/05/21 04:43:46;;;;;;;2.90;2.30;;;;;;;21.67;45.62;100534.75;4950219;28;20512;-83
2022/05/21 04:46:15;;;;;;;3.65;2.58;;;;;;;21.74;45.96;100529.44;4942319;28;20047;-83
2022/05/21 04:48:44;;;;;;;3.42;2.42;;;;;;;21.74;45.72;100532.97;4943537;28;20061;-83
2022/05/21 04:51:29;;;;;;;2.72;2.50;;;;;;;21.72;45.45;100526.09;4980809;28;20084;-89
2022/05/21 04:53:57;;;;;;;3.75;2.42;;;;;;;21.65;45.89;100539.50;4982930;28;20042;-89
2022/05/21 04:56:24;;;;;;;6.43;2.92;;;;;;;21.63;45.72;100538.88;4980715;28;20094;-89
2022/05/21 04:59:10;;;;;;;3.42;3.08;;;;;;;21.63;45.95;100545.13;4973579;28;20080;-88
2022/05/21 05:01:38;;;;;;;3.72;3.00;;;;;;;21.68;46.23;100549.97;4971162;28;20058;-88
2022/05/21 05:04:07;;;;;;;4.50;3.13;;;;;;;21.70;45.87;100544.34;4966493;28;20537;-88
2022/05/21 05:06:34;;;;;;;3.83;2.80;;;;;;;21.70;46.12;100542.47;4970325;28;20431;-84
2022/05/21 05:09:07;;;;;;;4.38;2.88;;;;;;;21.72;45.95;100539.59;4964181;28;20589;-84
2022/05/21 05:11:34;;;;;;;3.53;2.78;;;;;;;21.77;45.80;100534.44;4955897;28;20413;-84
2022/05/21 05:14:01;;;;;;;4.70;2.53;;;;;;;21.83;46.22;100542.66;4960832;28;20043;-83
2022/05/21 05:16:28;;;;;;;3.92;2.88;;;;;;;21.86;46.09;100542.25;4941963;28;20057;-83
2022/05/21 05:18:55;;;;;;;6.45;3.70;;;;;;;21.89;46.02;100539.16;4971667;28;20041;-83
2022/05/21 05:21:23;;;;;;;7.38;3.38;;;;;;;21.95;46.02;100534.00;4989539;28;20392;-84
2022/05/21 05:23:49;;;;;;;3.85;2.95;;;;;;;21.98;45.83;100531.78;4964807;28;20494;-84
2022/05/21 05:26:17;;;;;;;3.38;2.47;;;;;;;22.01;45.53;100539.50;4998488;28;20122;-84
2022/05/21 05:28:44;;;;;;;4.90;2.92;;;;;;;22.03;45.74;100542.00;4972539;28;20039;-84
2022/05/21 05:31:12;;;;;;;2.97;2.67;;;;;;;22.03;45.83;100542.00;4959593;28;20044;-84
2022/05/21 05:33:39;;;;;;;4.80;2.85;;;;;;;22.03;45.97;100550.97;4961822;28;20069;-83
2022/05/21 05:36:06;;;;;;;4.75;2.40;;;;;;;22.05;45.98;100550.75;4953356;28;20049;-83
2022/05/21 05:38:33;;;;;;;5.82;2.90;;;;;;;22.07;46.17;100554.09;4984239;28;20050;-83
2022/05/21 05:40:59;;;;;;;3.08;2.85;;;;;;;22.10;45.89;100549.13;4979464;28;20386;-83
2022/05/21 05:43:26;;;;;;;3.75;2.90;;;;;;;22.15;45.63;100553.13;4978211;28;20384;-83
2022/05/21 05:45:58;;;;;;;5.13;2.70;;;;;;;22.08;45.58;100544.94;4969277;28;20054;-83
2022/05/21 05:48:26;;;;;;;4.30;2.60;;;;;;;22.05;46.01;100558.88;4978675;28;20050;-82
2022/05/21 05:50:57;;;;;;;9.07;3.10;;;;;;;22.04;45.81;100554.50;4959618;28;20054;-82
2022/05/21 05:53:24;;;;;;;4.07;2.47;;;;;;;22.04;45.65;100552.63;4979188;28;20050;-81
2022/05/21 05:55:51;;;;;;;2.50;2.30;;;;;;;22.07;45.58;100554.09;4957579;28;20073;-81
2022/05/21 06:01:06;;;;;;;7.78;2.45;;;;;;;21.97;45.29;100559.81;4948544;28;20051;-87
2022/05/21 06:03:34;;;;;;;2.72;2.53;;;;;;;21.99;45.64;100565.06;4913410;28;20142;-88
2022/05/21 06:06:03;;;;;;;4.03;2.40;;;;;;;21.99;45.71;100563.19;4926609;28;20523;-82
2022/05/21 06:08:30;;;;;;;2.85;2.28;;;;;;;22.04;45.60;100551.78;4922729;28;20403;-82
2022/05/21 06:10:56;;;;;;;4.22;2.35;;;;;;;22.07;45.17;100556.81;4905400;28;20067;-82
2022/05/21 06:13:23;;;;;;;4.88;2.50;;;;;;;22.10;45.24;100551.00;4924504;28;20055;-82
2022/05/21 06:15:50;;;;;;;4.53;2.50;;;;;;;22.17;44.83;100551.91;4919534;28;20054;-82
2022/05/21 06:18:19;;;;;;;4.40;2.03;;;;;;;22.15;44.77;100548.56;4945825;28;20051;-82
2022/05/21 06:20:46;;;;;;;3.42;2.25;;;;;;;22.11;44.83;100547.28;4942638;28;20543;-82
2022/05/21 06:23:13;;;;;;;3.08;2.25;;;;;;;22.13;44.88;100558.72;4922021;28;20050;-82
2022/05/21 06:25:40;;;;;;;1.70;1.60;;;;;;;22.10;44.59;100554.53;4915256;28;20633;-82
2022/05/21 06:28:08;;;;;;;3.60;2.00;;;;;;;22.12;44.18;100559.78;4932464;28;20051;-81
2022/05/21 06:30:37;;;;;;;3.25;1.95;;;;;;;22.08;43.87;100558.47;4894391;28;20566;-81
2022/05/21 06:33:18;;;;;;;3.40;1.45;;;;;;;22.02;43.48;100564.66;4960272;28;20394;-86
2022/05/21 06:35:46;;;;;;;2.85;1.77;;;;;;;22.04;43.71;100565.31;4965735;28;20050;-80
2022/05/21 06:38:13;;;;;;;2.33;1.80;;;;;;;22.06;43.22;100565.97;4967628;28;20054;-85
2022/05/21 06:40:40;;;;;;;3.97;2.22;;;;;;;21.97;43.34;100567.94;4976159;28;20039;-81
2022/05/21 06:43:07;;;;;;;2.10;1.70;;;;;;;21.92;43.69;100574.97;4974068;28;20042;-81
2022/05/21 06:45:35;;;;;;;3.33;1.77;;;;;;;21.85;43.46;100578.44;4978315;28;20060;-81
2022/05/21 06:48:03;;;;;;;2.55;1.80;;;;;;;21.86;43.53;100581.97;4982710;28;20038;-83
2022/05/21 06:50:30;;;;;;;2.97;1.85;;;;;;;21.94;43.73;100572.91;4975480;28;20093;-84
2022/05/21 06:52:57;;;;;;;3.67;2.10;;;;;;;21.98;43.43;100577.75;4937262;28;20045;-84
2022/05/21 06:55:25;;;;;;;4.68;2.10;;;;;;;22.01;43.03;100579.22;4991828;28;20057;-82
2022/05/21 06:57:51;;;;;;;3.30;2.30;;;;;;;22.00;43.24;100577.53;4958274;28;20407;-82
2022/05/21 07:00:21;;;;;;;3.75;2.20;;;;;;;22.01;43.33;100580.06;4964994;28;20043;-82
2022/05/21 07:02:53;;;;;;;4.53;2.35;;;;;;;22.00;43.40;100575.66;4957254;28;20534;-82
2022/05/21 07:08:15;;;;;;;6.63;2.60;;;;;;;21.97;43.33;100586.03;4955088;28;20495;-82
2022/05/21 07:10:42;;;;;;;3.40;2.67;;;;;;;21.96;43.22;100585.22;4967090;28;20039;-85
2022/05/21 07:13:09;;;;;;;3.58;2.40;;;;;;;21.83;43.13;100583.19;4955120;28;20058;-85
2022/05/21 07:15:36;;;;;;;3.78;2.50;;;;;;;21.73;43.30;100582.66;4966344;28;20107;-85
2022/05/21 07:18:03;;;;;;;4.32;2.60;;;;;;;21.73;43.78;100588.06;4978264;28;20108;-82
2022/05/21 07:20:30;;;;;;;3.33;2.58;;;;;;;21.77;44.16;100591.22;4975148;28;20058;-83
2022/05/21 07:23:00;;;;;;;3.47;2.60;;;;;;;21.81;43.88;100587.13;4977286;28;20045;-82
2022/05/21 07:25:30;;;;;;;7.45;2.40;;;;;;;21.87;43.33;100579.06;4941354;28;20391;-81
2022/05/21 07:28:01;;;;;;;5.35;2.53;;;;;;;21.89;43.57;100581.59;4967525;28;20480;-81
2022/05/21 07:30:29;;;;;;;3.97;2.47;;;;;;;21.89;43.65;100574.31;4947232;28;20105;-81
2022/05/21 07:32:56;;;;;;;3.90;2.40;;;;;;;21.93;43.68;100568.50;4948200;28;20129;-81
2022/05/21 07:35:24;;;;;;;2.58;2.00;;;;;;;21.99;43.61;100565.88;4994988;28;20513;-86
2022/05/21 07:37:51;;;;;;;6.55;2.40;;;;;;;22.11;43.49;100563.53;4963488;28;20097;-86
2022/05/21 07:40:20;;;;;;;4.28;2.47;;;;;;;22.16;43.37;100577.31;4978487;28;20039;-86
2022/05/21 07:42:47;;;;;;;8.73;2.58;;;;;;;22.08;42.90;100558.47;4993921;28;20047;-85
2022/05/21 07:45:17;;;;;;;4.68;1.90;;;;;;;22.08;42.99;100569.28;4962640;28;20125;-85
2022/05/21 07:47:43;;;;;;;4.15;2.08;;;;;;;22.17;43.19;100562.72;4971099;28;20050;-82
2022/05/21 07:50:11;;;;;;;3.58;2.00;;;;;;;22.18;43.26;100558.97;4959859;28;20047;-86
2022/05/21 07:52:38;;;;;;;3.58;2.00;;;;;;;22.07;43.01;100563.06;4954811;28;20085;-85
2022/05/21 07:55:06;;;;;;;5.10;2.03;;;;;;;22.09;43.37;100565.56;4949662;28;20043;-81
2022/05/21 07:57:33;;;;;;;3.35;2.20;;;;;;;22.04;43.04;100568.03;4956571;28;20502;-79
2022/05/21 08:00:03;;;;;;;6.20;2.20;;;;;;;22.01;43.36;100569.25;4989526;28;20528;-82
2022/05/21 08:02:40;;;;;;;4.07;2.08;;;;;;;21.98;42.95;100564.22;4961512;28;20046;-82
2022/05/21 08:05:07;;;;;;;4.57;2.13;;;;;;;21.98;43.27;100579.59;4978381;28;20494;-82
2022/05/21 08:07:34;;;;;;;3.80;1.77;;;;;;;21.96;43.34;100571.69;4953493;28;20043;-86
2022/05/21 08:10:03;;;;;;;5.97;2.28;;;;;;;21.55;43.09;100587.63;4955888;28;20054;-85
2022/05/21 08:12:32;;;;;;;6.63;2.20;;;;;;;21.40;43.62;100576.88;4952652;28;20859;-84
2022/05/21 08:14:58;;;;;;;4.68;2.10;;;;;;;21.32;43.09;100576.91;4955558;28;20549;-82
2022/05/21 08:17:25;;;;;;;6.25;1.83;;;;;;;21.44;43.62;100581.69;4942536;28;20438;-82
2022/05/21 08:19:52;;;;;;;4.95;1.73;;;;;;;21.58;43.55;100580.00;4955344;28;20053;-82
2022/05/21 08:27:56;;;;;;;3.92;2.00;;;;;;;21.63;43.33;100593.78;4982621;28;20391;-81
2022/05/21 08:30:23;;;;;;;3.83;1.88;;;;;;;21.40;43.77;100593.06;4991008;28;20090;-82
2022/05/21 08:32:58;;;;;;;3.83;1.88;;;;;;;21.21;43.29;100591.72;4977802;28;20048;-82
2022/05/21 08:35:25;;;;;;;5.10;1.90;;;;;;;21.36;43.46;100591.72;4988636;28;20042;-82
2022/05/21 08:37:53;;;;;;;8.43;1.92;;;;;;;21.19;43.55;100593.78;4960090;28;20629;-82
2022/05/21 08:40:20;;;;;;;7.60;2.17;;;;;;;21.21;44.08;100579.06;4976719;28;20046;-79
2022/05/21 08:42:58;;;;;;;3.60;2.38;;;;;;;21.23;44.17;100573.47;4973403;28;20626;-82
2022/05/21 08:45:49;;;;;;;5.25;2.10;;;;;;;21.16;44.48;100589.59;4973885;28;20070;-82
2022/05/21 08:48:16;;;;;;;4.35;2.33;;;;;;;21.38;44.39;100579.75;4949125;28;20133;-82
2022/05/21 08:50:48;;;;;;;5.38;2.47;;;;;;;21.30;43.96;100582.53;4954705;28;20042;-82
2022/05/21 08:53:22;;;;;;;4.10;2.30;;;;;;;21.16;44.24;100576.09;4982250;28;20050;-81
2022/05/21 08:55:52;;;;;;;7.28;1.95;;;;;;;21.11;44.51;100581.22;4972548;28;20047;-82
2022/05/21 08:58:44;;;;;;;5.03;2.15;;;;;;;21.12;45.55;100580.19;4979357;28;20039;-82
2022/05/21 09:01:11;;;;;;;3.53;2.00;;;;;;;21.29;44.73;100572.72;4939585;28;20054;-82
2022/05/21 09:03:38;;;;;;;6.60;2.25;;;;;;;21.44;44.11;100573.56;4963983;28;20050;-82
2022/05/21 09:06:05;;;;;;;4.68;2.33;;;;;;;21.46;44.80;100573.41;4939697;28;20475;-83
2022/05/21 09:08:42;;;;;;;4.50;2.10;;;;;;;21.52;44.89;100578.03;4942518;28;20407;-82
2022/05/21 09:11:13;;;;;;;6.03;2.67;;;;;;;21.52;43.71;100577.19;4941197;28;20047;-82
2022/05/21 09:13:47;;;;;;;6.85;2.40;;;;;;;21.44;44.29;100559.22;4941709;28;20053;-81
2022/05/21 09:19:08;;;;;;;2.72;2.10;;;;;;;21.73;44.39;100542.13;4950189;28;20057;-82
2022/05/21 09:21:45;;;;;;;4.78;2.20;;;;;;;21.74;43.84;100546.50;4979096;28;20108;-82
2022/05/21 09:24:38;;;;;;;7.53;2.20;;;;;;;21.87;43.79;100545.78;4947890;28;20068;-82
2022/05/21 09:27:21;;;;;;;4.10;2.05;;;;;;;21.92;43.70;100537.09;4948441;28;20043;-82
2022/05/21 09:29:50;;;;;;;3.25;2.00;;;;;;;22.02;43.69;100540.31;4978322;28;20046;-82
2022/05/21 09:32:32;;;;;;;3.45;2.00;;;;;;;22.00;43.64;100531.56;4980528;28;20461;-81
2022/05/21 09:35:11;;;;;;;4.63;2.35;;;;;;;22.14;43.17;100535.25;4974570;28;20042;-85
2022/05/21 09:37:40;;;;;;;3.45;2.08;;;;;;;22.12;43.47;100530.03;4947994;28;20055;-85
2022/05/21 09:40:25;;;;;;;5.68;2.08;;;;;;;22.16;43.06;100522.34;4982040;28;20043;-83
2022/05/21 09:45:40;;;;;;;4.88;2.33;;;;;;;22.23;42.90;100520.56;4935757;28;20498;-89
2022/05/21 09:48:07;;;;;;;3.70;1.88;;;;;;;22.14;42.97;100516.31;4966162;28;20129;-85
2022/05/21 09:50:52;;;;;;;4.82;2.30;;;;;;;22.01;42.76;100528.69;4975597;28;20113;-84
2022/05/21 09:53:26;;;;;;;3.50;2.20;;;;;;;22.04;43.60;100527.44;4930907;28;20509;-85
2022/05/21 09:56:07;;;;;;;4.95;2.20;;;;;;;21.99;42.83;100529.91;4918669;28;20046;-85
2022/05/21 09:58:40;;;;;;;3.78;2.25;;;;;;;22.04;42.89;100536.41;4981966;28;20479;-84
2022/05/21 10:01:08;;;;;;;;;;;;;;;21.93;42.13;100522.53;4936154;28;20042;-87
2022/05/21 10:03:45;;;;;;;4.10;2.33;;;;;;;22.22;42.31;100516.19;4967634;28;20410;-84
2022/05/21 10:06:40;;;;;;;4.10;2.53;;;;;;;22.14;42.01;100509.03;4944855;28;20407;-82
2022/05/21 10:12:21;;;;;;;6.88;3.15;;;;;;;22.06;42.38;100509.16;4971434;28;20043;-81
2022/05/21 10:14:55;;;;;;;4.78;3.20;;;;;;;21.94;41.58;100506.13;4976616;28;20063;-81
2022/05/21 10:17:28;;;;;;;5.82;2.92;;;;;;;21.72;42.64;100510.69;4982168;28;20054;-81
2022/05/21 10:20:12;;;;;;;6.03;2.88;;;;;;;21.62;42.52;100504.75;4968609;28;20117;-81
2022/05/21 10:22:44;;;;;;;5.28;3.05;;;;;;;21.33;43.22;100516.47;4932643;28;20522;-79
2022/05/21 10:25:14;;;;;;;9.23;3.10;;;;;;;21.27;43.93;100518.06;4972080;28;20125;-79
2022/05/21 10:28:11;;;;;;;5.32;2.70;;;;;;;21.17;44.07;100510.25;4963095;28;20072;-78
2022/05/21 10:30:59;;;;;;;3.63;2.58;;;;;;;21.37;44.49;100506.94;4945587;28;20054;-80
2022/05/21 10:33:44;;;;;;;4.72;3.05;;;;;;;21.56;43.20;100513.66;4955906;28;20129;-81
2022/05/21 10:36:38;;;;;;;3.33;2.63;;;;;;;21.56;42.79;100500.13;4906867;28;20130;-81
2022/05/21 10:39:32;;;;;;;5.05;2.88;;;;;;;21.78;42.93;100512.66;4943035;28;20468;-81
2022/05/21 10:42:06;;;;;;;5.22;2.80;;;;;;;21.87;42.23;100500.66;4938559;28;20062;-81
2022/05/21 10:44:43;;;;;;;4.18;2.42;;;;;;;21.94;41.93;100494.50;4944916;28;20046;-82
2022/05/21 10:47:10;;;;;;;3.45;2.30;;;;;;;22.02;42.15;100499.75;4954194;28;20137;-82
2022/05/21 10:49:54;;;;;;;3.85;2.35;;;;;;;22.08;41.45;100496.25;4957039;28;20094;-82
2022/05/21 10:52:26;;;;;;;3.00;2.25;;;;;;;22.11;41.73;100491.31;4961791;28;20069;-81
2022/05/21 10:54:56;;;;;;;4.97;2.45;;;;;;;22.22;41.89;100486.44;4974206;28;20053;-81
2022/05/21 10:57:57;;;;;;;6.53;2.28;;;;;;;22.17;42.09;100486.16;4967955;28;20042;-81
2022/05/21 11:00:31;;;;;;;4.00;2.20;;;;;;;22.30;41.23;100487.13;4943236;28;20514;-82
2022/05/21 11:03:32;;;;;;;6.70;2.80;;;;;;;22.38;40.92;100488.00;4960441;28;20051;-82
2022/05/21 11:06:17;;;;;;;3.85;2.33;;;;;;;22.50;40.31;100492.69;4970580;28;20038;-82
2022/05/21 11:08:54;;;;;;;3.40;2.58;;;;;;;22.21;40.01;100488.31;4959748;28;20383;-81
2022/05/21 11:11:26;;;;;;;5.70;2.67;;;;;;;22.11;40.53;100485.91;4951363;28;20410;-82
2022/05/21 11:14:18;;;;;;;7.22;3.30;;;;;;;22.08;41.30;100496.25;4976086;28;20054;-83
2022/05/21 11:16:49;;;;;;;4.80;2.75;;;;;;;22.08;41.52;100494.41;4965029;28;20054;-82
2022/05/21 11:19:34;;;;;;;5.03;2.40;;;;;;;21.97;41.06;100494.94;4981694;28;20122;-82
2022/05/21 11:22:25;;;;;;;6.35;2.67;;;;;;;22.01;40.57;100481.88;4979400;28;20402;-83
2022/05/21 11:25:09;;;;;;;5.60;2.20;;;;;;;21.98;40.94;100476.84;4945159;28;20053;-81
2022/05/21 11:27:49;;;;;;;5.10;1.90;;;;;;;21.93;40.65;100474.72;4942773;28;20077;-81
2022/05/21 11:30:20;;;;;;;5.00;1.90;;;;;;;22.10;41.27;100469.88;4977117;28;20108;-80
2022/05/21 11:38:42;;;;;;;3.03;1.88;;;;;;;22.54;41.10;100460.63;4933344;28;20073;-87
2022/05/21 11:41:25;;;;;;;2.72;1.63;;;;;;;22.54;40.55;100476.88;4938408;28;20051;-87
2022/05/21 11:44:55;;;;;;;2.45;1.48;;;;;;;22.59;40.34;100469.00;4973265;28;20046;-81
2022/05/21 11:46:51;;;;;;;2.85;1.95;;;;;;;22.60;41.31;100465.25;4959071;28;20054;-80
2022/05/21 11:49:26;;;;;;;3.00;1.58;;;;;;;22.47;39.76;100460.59;4976466;28;20099;-81
2022/05/21 11:51:54;;;;;;;3.38;1.80;;;;;;;22.58;40.12;100463.78;4972441;28;20756;-82
2022/05/21 11:54:49;;;;;;;5.43;1.90;;;;;;;22.40;40.86;100448.06;4975293;28;20101;-81
2022/05/21 11:57:32;;;;;;;5.95;1.55;;;;;;;22.52;41.85;100460.03;4907454;28;20177;-81
2022/05/21 12:00:09;;;;;;;4.28;1.67;;;;;;;22.62;40.02;100455.09;4957378;28;20061;-80
2022/05/21 12:03:00;;;;;;;2.58;1.48;;;;;;;22.56;39.99;100458.56;4990448;28;20567;-80
2022/05/21 12:05:33;;;;;;;3.13;1.50;;;;;;;22.60;39.59;100462.56;4986786;28;20471;-81
2022/05/21 12:08:25;;;;;;;4.40;1.88;;;;;;;22.57;40.66;100460.25;4985759;28;20409;-80
2022/05/21 12:10:55;;;;;;;2.17;1.30;;;;;;;22.68;41.06;100456.16;4960404;28;20043;-80
2022/05/21 12:13:34;;;;;;;4.68;1.77;;;;;;;22.70;39.29;100449.50;4976693;28;20470;-81
2022/05/21 12:16:19;;;;;;;2.88;1.45;;;;;;;22.79;39.71;100455.56;4940721;28;20110;-81
2022/05/21 12:18:59;;;;;;;3.58;1.30;;;;;;;22.69;38.93;100450.50;4946473;28;20073;-81
2022/05/21 12:21:36;;;;;;;3.08;1.20;;;;;;;22.87;39.63;100443.72;4999319;28;20042;-81
2022/05/21 12:24:05;;;;;;;2.05;1.25;;;;;;;22.84;39.18;100453.09;4967234;28;20058;-81
2022/05/21 12:26:44;;;;;;;2.22;1.30;;;;;;;22.92;39.16;100444.81;4991913;28;20133;-82
2022/05/21 12:29:24;;;;;;;3.55;1.38;;;;;;;23.01;39.88;100444.69;4973705;28;20382;-82